Terminal Aerodrome Forecast
Issued by NWS

Home | Current Version | Previous Version | Text Only | Print | Product List | Glossary On
Versions: 1 2 3 4 5 6 7 8 9 10 11 12 13 14 15 16 17 18 19 20 21
000
FTUS42 KMLB 302340
TAFLEE
TAF
KLEE 302340Z 3100/3124 21005KT P6SM SCT120 SCT250
     FM311400 22007KT P6SM SCT020 SCT120 SCT250
     FM311800 23010KT P6SM VCTS SCT040CB BKN120 BKN250=

USA.gov is the U.S. government's official web portal to all federal, state and local government web resources and services.